createdAt,value
2018-06-03T00:01:17.344Z,83.48
2018-06-03T00:03:46.365Z,83.71
2018-06-03T00:06:14.627Z,83.71
2018-06-03T00:08:43.649Z,84.29
2018-06-03T00:11:11.893Z,84.02
2018-06-03T00:13:40.917Z,84.13
2018-06-03T00:16:09.164Z,84.26
2018-06-03T00:18:38.184Z,84.86
2018-06-03T00:21:35.066Z,85.11
2018-06-03T00:24:04.093Z,85.59
2018-06-03T00:26:33.111Z,85.49
2018-06-03T00:29:01.369Z,84.46
2018-06-03T00:31:29.626Z,83.85
2018-06-03T00:33:57.876Z,83.70
2018-06-03T00:36:43.133Z,83.62
2018-06-03T00:39:11.380Z,83.86
2018-06-03T00:41:39.629Z,84.24
2018-06-03T00:44:08.650Z,84.30
2018-06-03T00:46:36.897Z,84.72
2018-06-03T00:49:05.922Z,84.47
2018-06-03T00:51:34.164Z,84.60
2018-06-03T00:54:03.190Z,84.67
2018-06-03T00:56:49.110Z,84.66
2018-06-03T00:59:17.371Z,85.10
2018-06-03T01:01:45.608Z,85.25
2018-06-03T01:04:14.629Z,86.36
2018-06-03T01:06:42.874Z,85.48
2018-06-03T01:09:11.894Z,87.29
2018-06-03T01:11:40.145Z,86.67
2018-06-03T01:14:11.004Z,87.07
2018-06-03T01:16:39.992Z,87.04
2018-06-03T01:19:08.252Z,87.29
2018-06-03T01:21:36.505Z,87.46
2018-06-03T01:24:04.758Z,87.61
2018-06-03T01:26:33.014Z,87.65
2018-06-03T01:29:01.257Z,88.25
2018-06-03T01:31:29.508Z,88.51
2018-06-03T01:33:57.761Z,88.74
2018-06-03T01:36:26.021Z,88.80
2018-06-03T01:38:54.264Z,88.95
2018-06-03T01:41:22.527Z,89.08
2018-06-03T01:43:51.542Z,89.04
2018-06-03T01:46:19.798Z,88.45
2018-06-03T01:48:48.806Z,87.60
2018-06-03T01:51:17.057Z,88.19
2018-06-03T01:53:46.072Z,88.58
2018-06-03T01:56:14.333Z,88.72
2018-06-03T01:58:43.352Z,89.22
2018-06-03T02:01:11.619Z,89.57
2018-06-03T02:03:39.865Z,89.48
2018-06-03T02:06:09.414Z,89.95
2018-06-03T02:08:37.656Z,89.73
2018-06-03T02:11:06.670Z,89.87
2018-06-03T02:13:34.938Z,90.14
2018-06-03T02:16:03.185Z,90.44
2018-06-03T02:18:31.438Z,90.08
2018-06-03T02:20:59.689Z,90.24
2018-06-03T02:23:27.947Z,90.15
2018-06-03T02:25:56.186Z,89.85
2018-06-03T02:28:24.501Z,89.61
2018-06-03T02:30:52.746Z,89.82
2018-06-03T02:33:21.765Z,89.96
2018-06-03T02:35:50.013Z,90.20
2018-06-03T02:38:19.040Z,90.00
2018-06-03T02:40:47.288Z,90.05
2018-06-03T02:43:16.309Z,90.24
2018-06-03T02:45:44.565Z,90.66
2018-06-03T02:48:13.585Z,90.63
2018-06-03T02:50:41.842Z,91.69
2018-06-03T02:53:10.114Z,91.54
2018-06-03T02:55:39.126Z,91.57
2018-06-03T02:58:07.367Z,91.32
2018-06-03T03:00:36.401Z,91.78
2018-06-03T03:03:04.646Z,91.67
2018-06-03T03:05:33.665Z,91.20
2018-06-03T03:08:01.910Z,90.70
2018-06-03T03:10:30.934Z,90.80
2018-06-03T03:12:59.185Z,90.89
2018-06-03T03:15:28.205Z,92.15
2018-06-03T03:17:56.462Z,91.15
2018-06-03T03:20:24.718Z,91.58
2018-06-03T03:22:53.729Z,91.57
2018-06-03T03:25:21.985Z,92.27
2018-06-03T03:27:51.000Z,92.17
2018-06-03T03:30:19.260Z,92.84
2018-06-03T03:32:48.324Z,92.54
2018-06-03T03:35:16.572Z,92.54
2018-06-03T03:37:44.829Z,91.71
2018-06-03T03:40:13.076Z,91.88
2018-06-03T03:42:42.103Z,91.69
2018-06-03T03:45:10.342Z,91.36
2018-06-03T03:47:39.364Z,90.95
2018-06-03T03:50:07.629Z,90.72
2018-06-03T03:52:35.877Z,90.57
2018-06-03T03:55:04.132Z,90.47
2018-06-03T03:57:32.390Z,90.44
2018-06-03T04:00:00.636Z,90.42
2018-06-03T04:02:29.584Z,90.77
2018-06-03T04:04:57.833Z,90.37
2018-06-03T04:07:26.094Z,89.95
2018-06-03T04:09:54.335Z,89.81
2018-06-03T04:12:23.373Z,90.20
2018-06-03T04:14:51.621Z,90.09
2018-06-03T04:17:19.866Z,90.15
2018-06-03T04:19:48.121Z,90.10
2018-06-03T04:22:55.600Z,91.26
2018-06-03T04:25:24.773Z,91.04
2018-06-03T04:27:53.948Z,91.21
2018-06-03T04:30:22.944Z,91.13
2018-06-03T04:32:52.133Z,90.69
2018-06-03T04:35:21.305Z,90.36
2018-06-03T04:37:50.477Z,90.25
2018-06-03T04:40:19.641Z,90.50
2018-06-03T04:42:48.809Z,90.83
2018-06-03T04:45:17.982Z,90.63
2018-06-03T04:47:47.136Z,90.94
2018-06-03T04:50:16.329Z,90.66
2018-06-03T04:52:45.489Z,90.42
2018-06-03T04:55:14.942Z,89.85
2018-06-03T04:57:44.117Z,90.05
2018-06-03T05:00:13.278Z,89.34
2018-06-03T05:02:42.470Z,89.53
2018-06-03T05:05:11.704Z,89.20
2018-06-03T05:07:40.832Z,89.15
2018-06-03T05:10:10.014Z,89.00
2018-06-03T05:12:39.185Z,88.53
2018-06-03T05:15:08.952Z,88.35
2018-06-03T05:17:38.121Z,87.89
2018-06-03T05:20:07.461Z,87.63
2018-06-03T05:22:36.627Z,87.79
2018-06-03T05:25:05.808Z,87.76
2018-06-03T05:27:34.984Z,87.43
2018-06-03T05:30:04.157Z,87.30
2018-06-03T05:32:33.416Z,87.12
2018-06-03T05:35:02.588Z,86.13
2018-06-03T05:37:31.764Z,86.06
2018-06-03T05:40:00.929Z,86.06
2018-06-03T05:42:30.133Z,85.56
2018-06-03T05:44:59.272Z,85.69
2018-06-03T05:47:28.228Z,84.44
2018-06-03T05:49:57.423Z,84.95
2018-06-03T05:52:26.637Z,84.69
2018-06-03T05:54:55.869Z,84.48
2018-06-03T05:57:25.087Z,84.04
2018-06-03T05:59:54.493Z,83.57
2018-06-03T06:02:23.693Z,84.18
2018-06-03T06:04:52.900Z,83.11
2018-06-03T06:07:23.212Z,82.77
2018-06-03T06:09:52.406Z,82.82
2018-06-03T06:12:21.605Z,81.80
2018-06-03T06:14:50.798Z,81.53
2018-06-03T06:17:20.120Z,81.53
2018-06-03T06:19:49.316Z,81.30
2018-06-03T06:22:18.536Z,81.03
2018-06-03T06:24:47.736Z,80.13
2018-06-03T06:27:16.949Z,79.85
2018-06-03T06:29:46.165Z,79.52
2018-06-03T06:32:15.868Z,79.53
2018-06-03T06:34:45.087Z,78.73
2018-06-03T06:37:14.289Z,78.16
2018-06-03T06:39:43.493Z,76.55
2018-06-03T06:42:12.692Z,75.43
2018-06-03T06:44:41.897Z,75.29
2018-06-03T06:47:11.095Z,76.74
2018-06-03T06:49:40.285Z,76.81
2018-06-03T06:52:09.515Z,75.27
2018-06-03T06:54:38.722Z,74.66
2018-06-03T06:57:07.909Z,74.77
2018-06-03T06:59:37.124Z,74.84
2018-06-03T07:02:06.295Z,73.80
2018-06-03T07:04:35.467Z,74.21
2018-06-03T07:07:04.642Z,73.93
2018-06-03T07:09:33.814Z,73.71
2018-06-03T07:12:02.977Z,72.93
2018-06-03T07:14:32.178Z,72.56
2018-06-03T07:17:01.337Z,72.80
2018-06-03T07:19:30.516Z,73.54
2018-06-03T07:21:59.676Z,73.22
2018-06-03T07:24:28.852Z,72.28
2018-06-03T07:26:58.017Z,72.13
2018-06-03T07:29:27.188Z,70.80
2018-06-03T07:31:56.370Z,70.47
2018-06-03T07:34:25.548Z,70.59
2018-06-03T07:36:54.708Z,70.35
2018-06-03T07:39:23.878Z,68.62
2018-06-03T07:41:53.056Z,67.34
2018-06-03T07:44:22.213Z,68.78
2018-06-03T07:46:51.401Z,68.03
2018-06-03T07:49:20.583Z,67.32
2018-06-03T07:51:49.760Z,67.86
2018-06-03T07:54:18.938Z,67.22
2018-06-03T07:56:48.121Z,68.23
2018-06-03T07:59:17.303Z,66.96
2018-06-03T08:01:46.472Z,66.44
2018-06-03T08:04:15.652Z,66.72
2018-06-03T08:06:44.821Z,67.17
2018-06-03T08:09:13.989Z,65.31
2018-06-03T08:11:43.173Z,65.36
2018-06-03T08:14:12.397Z,64.15
2018-06-03T08:16:41.582Z,64.11
2018-06-03T08:19:10.755Z,62.92
2018-06-03T08:21:39.930Z,62.66
2018-06-03T08:24:09.106Z,62.60
2018-06-03T08:26:38.278Z,60.06
2018-06-03T08:29:07.449Z,61.75
2018-06-03T08:31:36.617Z,61.44
2018-06-03T08:34:05.815Z,60.51
2018-06-03T08:36:35.037Z,59.04
2018-06-03T08:39:05.887Z,59.65
2018-06-03T08:41:35.059Z,58.73
2018-06-03T08:44:04.021Z,59.74
2018-06-03T08:46:33.187Z,57.79
2018-06-03T08:49:02.364Z,57.41
2018-06-03T08:51:31.534Z,57.11
2018-06-03T08:54:00.710Z,57.07
2018-06-03T08:56:29.873Z,57.63
2018-06-03T08:58:59.068Z,54.78
2018-06-03T09:01:28.273Z,54.11
2018-06-03T09:03:57.472Z,52.46
2018-06-03T09:06:26.672Z,54.33
2018-06-03T09:08:55.876Z,54.09
2018-06-03T09:11:25.092Z,54.43
2018-06-03T09:13:54.289Z,53.10
2018-06-03T09:16:23.485Z,50.72
2018-06-03T09:18:52.892Z,52.26
2018-06-03T09:21:22.184Z,50.65
2018-06-03T09:23:51.392Z,54.06
2018-06-03T09:26:20.585Z,54.50
2018-06-03T09:28:49.776Z,53.21
2018-06-03T09:31:18.968Z,53.05
2018-06-03T09:33:50.793Z,53.83
2018-06-03T09:36:19.994Z,55.17
2018-06-03T09:38:49.195Z,53.96
2018-06-03T09:41:18.721Z,53.13
2018-06-03T09:43:48.025Z,53.89
2018-06-03T09:46:17.201Z,53.83
2018-06-03T09:48:46.442Z,53.70
2018-06-03T09:51:15.559Z,51.52
2018-06-03T09:53:44.717Z,51.97
2018-06-03T09:56:13.897Z,52.06
2018-06-03T09:58:43.070Z,52.68
2018-06-03T10:01:12.261Z,52.80
2018-06-03T10:03:41.430Z,54.03
2018-06-03T10:06:11.594Z,55.20
2018-06-03T10:08:40.765Z,53.91
2018-06-03T10:11:09.957Z,51.53
2018-06-03T10:13:39.126Z,53.54
2018-06-03T10:16:08.307Z,54.55
2018-06-03T10:18:37.478Z,54.27
2018-06-03T10:21:06.675Z,51.03
2018-06-03T10:23:35.846Z,51.51
2018-06-03T10:26:05.092Z,49.87
2018-06-03T10:28:34.258Z,51.59
2018-06-03T10:31:03.425Z,51.73
2018-06-03T10:33:32.597Z,50.17
2018-06-03T10:36:01.807Z,51.53
2018-06-03T10:38:30.977Z,49.08
2018-06-03T10:41:00.158Z,49.13
2018-06-03T10:43:29.321Z,50.71
2018-06-03T10:45:58.870Z,48.21
2018-06-03T10:48:28.025Z,47.47
2018-06-03T10:50:57.193Z,46.87
2018-06-03T10:53:26.369Z,45.85
2018-06-03T10:55:55.553Z,44.56
2018-06-03T10:58:24.727Z,45.46
2018-06-03T11:00:53.936Z,45.62
2018-06-03T11:03:23.118Z,45.70
2018-06-03T11:05:52.281Z,44.70
2018-06-03T11:08:21.450Z,47.10
2018-06-03T11:10:50.630Z,46.03
2018-06-03T11:13:19.802Z,46.40
2018-06-03T11:15:48.965Z,42.88
2018-06-03T11:18:18.143Z,45.29
2018-06-03T11:20:47.312Z,47.65
2018-06-03T11:23:16.488Z,46.97
2018-06-03T11:25:45.677Z,46.82
2018-06-03T11:28:14.889Z,46.30
2018-06-03T11:30:43.840Z,48.13
2018-06-03T11:33:13.041Z,45.25
2018-06-03T11:35:42.236Z,44.19
2018-06-03T11:38:11.433Z,45.98
2018-06-03T11:40:40.643Z,42.48
2018-06-03T11:43:09.832Z,43.44
2018-06-03T11:45:39.045Z,41.58
2018-06-03T11:48:08.241Z,40.95
2018-06-03T11:50:37.518Z,41.26
2018-06-03T11:53:06.710Z,40.13
2018-06-03T11:55:35.918Z,40.08
2018-06-03T11:58:54.708Z,38.40
2018-06-03T12:01:24.425Z,38.68
2018-06-03T12:03:53.360Z,36.67
2018-06-03T12:06:22.525Z,37.46
2018-06-03T12:08:58.277Z,37.93
2018-06-03T12:11:27.445Z,36.68
2018-06-03T12:13:56.626Z,36.51
2018-06-03T12:16:25.792Z,36.09
2018-06-03T12:18:54.977Z,39.40
2018-06-03T12:21:24.164Z,38.42
2018-06-03T12:23:53.350Z,42.10
2018-06-03T12:26:22.522Z,40.98
2018-06-03T12:28:51.690Z,41.79
2018-06-03T12:31:20.854Z,40.52
2018-06-03T12:33:50.017Z,37.86
2018-06-03T12:36:19.191Z,36.65
2018-06-03T12:38:48.346Z,37.21
2018-06-03T12:41:17.691Z,35.66
2018-06-03T12:43:46.872Z,40.54
2018-06-03T12:46:16.063Z,37.88
2018-06-03T12:48:45.217Z,36.61
2018-06-03T12:51:14.177Z,36.44
2018-06-03T12:53:43.346Z,37.81
2018-06-03T12:56:12.507Z,36.49
2018-06-03T12:58:41.721Z,34.71
2018-06-03T13:01:10.909Z,32.74
2018-06-03T13:03:40.102Z,34.29
2018-06-03T13:06:09.297Z,32.88
2018-06-03T13:08:38.261Z,31.32
2018-06-03T13:11:07.496Z,32.94
2018-06-03T13:13:36.697Z,33.04
2018-06-03T13:16:05.898Z,33.03
2018-06-03T13:18:35.133Z,31.98
2018-06-03T13:21:04.306Z,30.43
2018-06-03T13:23:33.521Z,33.98
2018-06-03T13:26:02.712Z,34.09
2018-06-03T13:28:31.918Z,32.14
2018-06-03T13:31:01.112Z,31.59
2018-06-03T13:33:30.304Z,32.18
2018-06-03T13:36:00.228Z,32.72
2018-06-03T13:38:29.445Z,33.50
2018-06-03T13:40:58.826Z,32.00
2018-06-03T13:43:28.039Z,31.41
2018-06-03T13:45:57.256Z,32.41
2018-06-03T13:48:29.318Z,32.41
2018-06-03T13:50:58.752Z,30.64
2018-06-03T13:53:28.512Z,31.87
2018-06-03T13:55:58.570Z,31.87
2018-06-03T13:58:28.192Z,31.65
2018-06-03T14:00:57.436Z,29.44
2018-06-03T14:03:26.649Z,29.68
2018-06-03T14:05:55.870Z,32.10
2018-06-03T14:08:31.436Z,32.52
2018-06-03T14:11:00.682Z,34.00
2018-06-03T14:13:30.777Z,36.49
2018-06-03T14:16:01.149Z,38.29
2018-06-03T14:18:31.926Z,38.33
2018-06-03T14:21:03.136Z,33.48
2018-06-03T14:23:34.241Z,31.53
2018-06-03T14:26:04.877Z,29.59
2018-06-03T14:28:36.245Z,31.30
2018-06-03T14:31:07.094Z,31.42
2018-06-03T14:33:37.078Z,30.06
2018-06-03T14:36:06.988Z,31.27
2018-06-03T14:38:36.624Z,33.30
2018-06-03T14:41:06.612Z,32.43
2018-06-03T14:43:36.243Z,33.68
2018-06-03T14:46:06.222Z,33.88
2018-06-03T14:48:35.920Z,30.35
2018-06-03T14:51:05.583Z,30.67
2018-06-03T14:53:35.059Z,33.98
2018-06-03T14:56:05.115Z,32.09
2018-06-03T14:58:34.686Z,34.38
2018-06-03T15:01:04.029Z,34.51
2018-06-03T15:03:33.376Z,32.71
2018-06-03T15:06:02.789Z,34.85
2018-06-03T15:08:32.182Z,33.31
2018-06-03T15:11:01.516Z,33.22
2018-06-03T15:13:30.882Z,31.83
2018-06-03T15:16:00.245Z,31.71
2018-06-03T15:18:29.674Z,31.41
2018-06-03T15:20:59.252Z,32.33
2018-06-03T15:23:28.698Z,31.04
2018-06-03T15:25:58.207Z,29.66
2018-06-03T15:28:27.722Z,28.40
2018-06-03T15:30:56.932Z,28.89
2018-06-03T15:33:26.470Z,28.46
2018-06-03T15:35:56.916Z,28.27
2018-06-03T15:38:27.114Z,27.31
2018-06-03T15:40:56.416Z,28.82
2018-06-03T15:43:25.743Z,30.32
2018-06-03T15:45:55.078Z,31.45
2018-06-03T15:48:24.382Z,34.73
2018-06-03T15:50:53.787Z,30.61
2018-06-03T15:53:23.072Z,30.47
2018-06-03T15:55:52.385Z,28.74
2018-06-03T15:58:21.740Z,29.82
2018-06-03T16:00:51.124Z,28.33
2018-06-03T16:03:20.223Z,28.89
2018-06-03T16:05:49.322Z,27.78
2018-06-03T16:08:18.708Z,25.39
2018-06-03T16:10:48.088Z,27.89
2018-06-03T16:13:17.431Z,28.37
2018-06-03T16:15:46.782Z,29.11
2018-06-03T16:18:16.145Z,31.04
2018-06-03T16:20:45.486Z,29.25
2018-06-03T16:23:14.819Z,29.31
2018-06-03T16:25:44.201Z,27.78
2018-06-03T16:28:13.598Z,27.60
2018-06-03T16:30:42.999Z,29.11
2018-06-03T16:33:12.364Z,27.67
2018-06-03T16:35:41.649Z,28.54
2018-06-03T16:38:10.973Z,29.54
2018-06-03T16:40:40.246Z,29.87
2018-06-03T16:43:09.591Z,27.38
2018-06-03T16:45:38.931Z,26.18
2018-06-03T16:48:08.191Z,29.37
2018-06-03T16:50:37.436Z,30.32
2018-06-03T16:53:06.745Z,28.70
2018-06-03T16:55:35.995Z,29.00
2018-06-03T16:58:05.294Z,29.01
2018-06-03T17:00:34.570Z,29.71
2018-06-03T17:03:03.871Z,27.70
2018-06-03T17:05:33.212Z,28.80
2018-06-03T17:08:02.693Z,29.66
2018-06-03T17:10:31.980Z,28.46
2018-06-03T17:13:01.241Z,30.47
2018-06-03T17:15:30.457Z,30.50
2018-06-03T17:17:59.685Z,30.51
2018-06-03T17:20:28.988Z,29.06
2018-06-03T17:22:58.298Z,30.65
2018-06-03T17:25:27.515Z,31.86
2018-06-03T17:27:56.792Z,32.34
2018-06-03T17:30:26.175Z,34.02
2018-06-03T17:32:55.438Z,33.05
2018-06-03T17:35:24.660Z,33.85
2018-06-03T17:37:53.898Z,33.86
2018-06-03T17:40:23.143Z,33.57
2018-06-03T17:42:52.301Z,33.36
2018-06-03T17:45:21.374Z,33.49
2018-06-03T17:47:50.586Z,35.12
2018-06-03T17:50:19.821Z,35.37
2018-06-03T17:52:49.112Z,35.18
2018-06-03T17:55:18.291Z,36.26
2018-06-03T17:57:47.620Z,35.80
2018-06-03T18:00:16.836Z,35.37
2018-06-03T18:02:46.005Z,34.86
2018-06-03T18:05:15.201Z,36.36
2018-06-03T18:07:44.394Z,38.80
2018-06-03T18:10:13.604Z,41.33
2018-06-03T18:12:42.814Z,43.38
2018-06-03T18:15:12.060Z,44.15
2018-06-03T18:17:41.325Z,45.21
2018-06-03T18:20:10.515Z,44.48
2018-06-03T18:22:39.821Z,44.62
2018-06-03T18:25:09.019Z,45.43
2018-06-03T18:27:39.085Z,47.18
2018-06-03T18:30:08.075Z,47.41
2018-06-03T18:32:37.269Z,47.44
2018-06-03T18:35:06.544Z,48.03
2018-06-03T18:37:35.771Z,49.93
2018-06-03T18:40:05.158Z,49.12
2018-06-03T18:42:34.619Z,49.24
2018-06-03T18:45:03.861Z,50.12
2018-06-03T18:47:33.087Z,51.32
2018-06-03T18:50:02.400Z,51.16
2018-06-03T18:52:31.651Z,52.62
2018-06-03T18:55:00.905Z,53.48
2018-06-03T18:57:30.156Z,53.50
2018-06-03T18:59:59.645Z,53.32
2018-06-03T19:02:28.929Z,53.79
2018-06-03T19:04:58.269Z,53.95
2018-06-03T19:07:27.463Z,54.41
2018-06-03T19:09:56.805Z,54.98
2018-06-03T19:12:27.293Z,55.76
2018-06-03T19:14:56.499Z,55.79
2018-06-03T19:17:25.634Z,55.64
2018-06-03T19:19:54.960Z,56.26
2018-06-03T19:22:24.350Z,56.60
2018-06-03T19:24:53.667Z,56.31
2018-06-03T19:27:23.057Z,56.75
2018-06-03T19:29:52.401Z,56.88
2018-06-03T19:32:21.580Z,57.50
2018-06-03T19:34:50.939Z,57.53
2018-06-03T19:37:20.254Z,59.00
2018-06-03T19:39:49.525Z,59.41
2018-06-03T19:42:18.782Z,59.51
2018-06-03T19:44:48.115Z,59.67
2018-06-03T19:47:17.531Z,59.51
2018-06-03T19:49:48.266Z,60.08
2018-06-03T19:52:17.609Z,60.14
2018-06-03T19:54:46.956Z,60.85
2018-06-03T19:57:16.387Z,61.29
2018-06-03T19:59:45.905Z,61.49
2018-06-03T20:02:15.291Z,61.41
2018-06-03T20:04:44.639Z,60.84
2018-06-03T20:07:13.738Z,61.04
2018-06-03T20:09:43.324Z,60.69
2018-06-03T20:12:12.787Z,60.24
2018-06-03T20:14:42.209Z,60.90
2018-06-03T20:17:11.596Z,61.73
2018-06-03T20:19:41.023Z,63.74
2018-06-03T20:22:10.506Z,61.96
2018-06-03T20:24:39.863Z,61.90
2018-06-03T20:27:09.148Z,62.18
2018-06-03T20:29:38.345Z,62.72
2018-06-03T20:32:07.564Z,63.77
2018-06-03T20:34:36.821Z,63.71
2018-06-03T20:37:06.021Z,64.20
2018-06-03T20:39:35.265Z,63.68
2018-06-03T20:42:04.465Z,64.33
2018-06-03T20:44:33.705Z,64.09
2018-06-03T20:47:02.992Z,63.69
2018-06-03T20:49:32.353Z,64.62
2018-06-03T20:52:01.658Z,64.46
2018-06-03T20:54:31.083Z,64.92
2018-06-03T20:57:00.323Z,66.09
2018-06-03T20:59:29.700Z,66.92
2018-06-03T21:01:58.913Z,66.67
2018-06-03T21:04:28.293Z,67.31
2018-06-03T21:06:57.501Z,67.73
2018-06-03T21:09:26.852Z,67.53
2018-06-03T21:11:55.992Z,65.82
2018-06-03T21:14:25.220Z,66.78
2018-06-03T21:16:55.174Z,67.13
2018-06-03T21:19:24.421Z,67.56
2018-06-03T21:21:53.738Z,67.18
2018-06-03T21:24:22.938Z,66.04
2018-06-03T21:26:52.326Z,65.55
2018-06-03T21:29:21.617Z,65.67
2018-06-03T21:31:50.921Z,64.93
2018-06-03T21:34:20.215Z,65.14
2018-06-03T21:36:49.527Z,65.14
2018-06-03T21:39:18.798Z,64.46
2018-06-03T21:41:48.074Z,64.90
2018-06-03T21:44:17.294Z,65.45
2018-06-03T21:46:46.605Z,64.58
2018-06-03T21:49:16.808Z,65.43
2018-06-03T21:51:46.192Z,65.79
2018-06-03T21:54:15.409Z,65.23
2018-06-03T21:56:44.740Z,65.18
2018-06-03T21:59:13.950Z,65.23
2018-06-03T22:01:43.199Z,64.50
2018-06-03T22:04:12.417Z,65.12
2018-06-03T22:06:41.621Z,65.30
2018-06-03T22:09:11.022Z,64.93
2018-06-03T22:11:40.225Z,64.56
2018-06-03T22:14:09.428Z,64.29
2018-06-03T22:16:38.636Z,64.86
2018-06-03T22:19:07.937Z,65.07
2018-06-03T22:21:37.125Z,65.55
2018-06-03T22:24:06.335Z,65.83
2018-06-03T22:26:35.537Z,66.20
2018-06-03T22:29:04.798Z,66.21
2018-06-03T22:31:33.993Z,66.65
2018-06-03T22:34:03.186Z,66.30
2018-06-03T22:36:32.404Z,66.45
2018-06-03T22:39:01.609Z,66.85
2018-06-03T22:41:30.818Z,66.78
2018-06-03T22:44:00.021Z,66.95
2018-06-03T22:46:29.234Z,67.92
2018-06-03T22:48:58.168Z,67.96
2018-06-03T22:51:27.363Z,68.56
2018-06-03T22:53:56.557Z,68.09
2018-06-03T22:56:26.367Z,67.65
2018-06-03T22:58:55.578Z,68.67
2018-06-03T23:01:24.767Z,68.82
2018-06-03T23:03:53.985Z,69.06
2018-06-03T23:06:23.173Z,68.58
2018-06-03T23:08:52.361Z,68.62
2018-06-03T23:11:21.535Z,69.20
2018-06-03T23:13:50.720Z,69.72
2018-06-03T23:16:19.884Z,70.11
2018-06-03T23:18:49.068Z,69.76
2018-06-03T23:21:18.265Z,68.72
2018-06-03T23:23:47.441Z,68.98
2018-06-03T23:26:16.621Z,69.93
2018-06-03T23:28:45.811Z,69.91
2018-06-03T23:31:14.981Z,70.89
2018-06-03T23:33:44.170Z,70.71
2018-06-03T23:36:13.341Z,70.72
2018-06-03T23:38:42.512Z,70.93
2018-06-03T23:41:11.690Z,71.40
2018-06-03T23:43:41.503Z,71.54
2018-06-03T23:46:10.665Z,71.67
2018-06-03T23:48:39.844Z,71.91
2018-06-03T23:51:09.026Z,72.55
2018-06-03T23:53:38.203Z,72.69
2018-06-03T23:56:07.382Z,72.20
2018-06-03T23:58:36.567Z,72.51
